sensor_id;sensor_type;location;lat;lon;timestamp;P1;durP1;ratioP1;P2;durP2;ratioP2
7432;SDS011;32233;49.500;7.764;2022-09-14T00:02:12;6.83;;;4.40;;
7432;SDS011;32233;49.500;7.764;2022-09-14T00:04:38;6.23;;;4.50;;
7432;SDS011;32233;49.500;7.764;2022-09-14T00:07:07;6.90;;;4.50;;
7432;SDS011;32233;49.500;7.764;2022-09-14T00:09:33;8.13;;;4.30;;
7432;SDS011;32233;49.500;7.764;2022-09-14T00:11:59;6.80;;;4.63;;
7432;SDS011;32233;49.500;7.764;2022-09-14T00:14:26;5.93;;;4.57;;
7432;SDS011;32233;49.500;7.764;2022-09-14T00:16:52;7.17;;;5.10;;
7432;SDS011;32233;49.500;7.764;2022-09-14T00:19:20;7.87;;;4.70;;
7432;SDS011;32233;49.500;7.764;2022-09-14T00:21:49;8.87;;;5.20;;
7432;SDS011;32233;49.500;7.764;2022-09-14T00:24:15;5.60;;;4.63;;
7432;SDS011;32233;49.500;7.764;2022-09-14T00:26:41;5.60;;;5.00;;
7432;SDS011;32233;49.500;7.764;2022-09-14T00:29:08;9.03;;;4.80;;
7432;SDS011;32233;49.500;7.764;2022-09-14T00:31:35;6.63;;;4.77;;
7432;SDS011;32233;49.500;7.764;2022-09-14T00:34:04;7.90;;;4.87;;
7432;SDS011;32233;49.500;7.764;2022-09-14T00:36:31;8.20;;;5.63;;
7432;SDS011;32233;49.500;7.764;2022-09-14T00:38:58;9.90;;;5.70;;
7432;SDS011;32233;49.500;7.764;2022-09-14T00:41:27;7.73;;;5.00;;
7432;SDS011;32233;49.500;7.764;2022-09-14T00:43:56;5.67;;;5.07;;
7432;SDS011;32233;49.500;7.764;2022-09-14T00:46:23;8.97;;;5.23;;
7432;SDS011;32233;49.500;7.764;2022-09-14T00:48:51;5.43;;;4.93;;
7432;SDS011;32233;49.500;7.764;2022-09-14T00:51:18;6.80;;;5.03;;
7432;SDS011;32233;49.500;7.764;2022-09-14T00:53:44;6.83;;;5.20;;
7432;SDS011;32233;49.500;7.764;2022-09-14T00:56:11;9.93;;;5.20;;
7432;SDS011;32233;49.500;7.764;2022-09-14T00:58:37;10.70;;;5.93;;
7432;SDS011;32233;49.500;7.764;2022-09-14T01:01:04;9.57;;;6.07;;
7432;SDS011;32233;49.500;7.764;2022-09-14T01:03:30;7.23;;;4.70;;
7432;SDS011;32233;49.500;7.764;2022-09-14T01:06:00;5.17;;;4.67;;
7432;SDS011;32233;49.500;7.764;2022-09-14T01:16:46;6.57;;;4.97;;
7432;SDS011;32233;49.500;7.764;2022-09-14T01:19:15;7.43;;;5.33;;
7432;SDS011;32233;49.500;7.764;2022-09-14T01:21:47;6.43;;;4.73;;
7432;SDS011;32233;49.500;7.764;2022-09-14T01:24:20;6.90;;;4.10;;
7432;SDS011;32233;49.500;7.764;2022-09-14T01:34:38;4.57;;;3.30;;
7432;SDS011;32233;49.500;7.764;2022-09-14T01:37:07;4.93;;;3.70;;
7432;SDS011;32233;49.500;7.764;2022-09-14T01:39:42;5.87;;;4.20;;
7432;SDS011;32233;49.500;7.764;2022-09-14T01:42:10;6.40;;;4.40;;
7432;SDS011;32233;49.500;7.764;2022-09-14T01:44:37;8.30;;;5.47;;
7432;SDS011;32233;49.500;7.764;2022-09-14T01:47:08;5.83;;;4.57;;
7432;SDS011;32233;49.500;7.764;2022-09-14T01:49:37;6.10;;;4.60;;
7432;SDS011;32233;49.500;7.764;2022-09-14T01:52:42;7.70;;;4.23;;
7432;SDS011;32233;49.500;7.764;2022-09-14T01:55:12;7.67;;;4.60;;
7432;SDS011;32233;49.500;7.764;2022-09-14T01:57:44;6.37;;;4.70;;
7432;SDS011;32233;49.500;7.764;2022-09-14T02:00:14;8.77;;;5.67;;
7432;SDS011;32233;49.500;7.764;2022-09-14T02:02:57;5.40;;;4.77;;
7432;SDS011;32233;49.500;7.764;2022-09-14T02:05:49;7.20;;;5.20;;
7432;SDS011;32233;49.500;7.764;2022-09-14T02:08:12;7.23;;;5.33;;
7432;SDS011;32233;49.500;7.764;2022-09-14T02:10:38;7.63;;;4.73;;
7432;SDS011;32233;49.500;7.764;2022-09-14T02:13:06;10.30;;;5.50;;
7432;SDS011;32233;49.500;7.764;2022-09-14T02:15:33;11.43;;;6.00;;
7432;SDS011;32233;49.500;7.764;2022-09-14T02:18:00;13.60;;;6.07;;
7432;SDS011;32233;49.500;7.764;2022-09-14T02:20:29;13.40;;;5.53;;
7432;SDS011;32233;49.500;7.764;2022-09-14T02:22:56;9.77;;;4.73;;
7432;SDS011;32233;49.500;7.764;2022-09-14T02:25:22;8.20;;;4.40;;
7432;SDS011;32233;49.500;7.764;2022-09-14T02:27:51;4.57;;;2.93;;
7432;SDS011;32233;49.500;7.764;2022-09-14T02:30:18;5.67;;;3.13;;
7432;SDS011;32233;49.500;7.764;2022-09-14T02:32:49;4.70;;;3.40;;
7432;SDS011;32233;49.500;7.764;2022-09-14T02:35:37;5.50;;;3.70;;
7432;SDS011;32233;49.500;7.764;2022-09-14T02:40:33;8.27;;;3.93;;
7432;SDS011;32233;49.500;7.764;2022-09-14T02:50:46;8.47;;;4.03;;
7432;SDS011;32233;49.500;7.764;2022-09-14T02:53:18;7.00;;;3.50;;
7432;SDS011;32233;49.500;7.764;2022-09-14T02:55:50;4.57;;;3.40;;
7432;SDS011;32233;49.500;7.764;2022-09-14T02:58:18;7.13;;;3.30;;
7432;SDS011;32233;49.500;7.764;2022-09-14T03:00:45;5.13;;;2.63;;
7432;SDS011;32233;49.500;7.764;2022-09-14T03:03:14;4.53;;;2.50;;
7432;SDS011;32233;49.500;7.764;2022-09-14T03:05:41;4.63;;;2.40;;
7432;SDS011;32233;49.500;7.764;2022-09-14T03:08:07;2.67;;;1.87;;
7432;SDS011;32233;49.500;7.764;2022-09-14T03:10:35;4.23;;;1.80;;
7432;SDS011;32233;49.500;7.764;2022-09-14T03:13:02;5.27;;;1.80;;
7432;SDS011;32233;49.500;7.764;2022-09-14T03:15:29;2.07;;;1.47;;
7432;SDS011;32233;49.500;7.764;2022-09-14T03:17:55;3.63;;;1.93;;
7432;SDS011;32233;49.500;7.764;2022-09-14T03:20:23;4.03;;;1.60;;
7432;SDS011;32233;49.500;7.764;2022-09-14T03:22:49;3.17;;;1.50;;
7432;SDS011;32233;49.500;7.764;2022-09-14T03:25:16;4.90;;;1.83;;
7432;SDS011;32233;49.500;7.764;2022-09-14T03:27:52;2.10;;;1.90;;
7432;SDS011;32233;49.500;7.764;2022-09-14T03:30:18;1.97;;;1.60;;
7432;SDS011;32233;49.500;7.764;2022-09-14T03:32:45;2.07;;;1.60;;
7432;SDS011;32233;49.500;7.764;2022-09-14T03:35:12;2.20;;;1.70;;
7432;SDS011;32233;49.500;7.764;2022-09-14T03:37:39;4.23;;;1.73;;
7432;SDS011;32233;49.500;7.764;2022-09-14T03:40:06;3.80;;;1.87;;
7432;SDS011;32233;49.500;7.764;2022-09-14T03:42:33;3.87;;;2.10;;
7432;SDS011;32233;49.500;7.764;2022-09-14T03:44:59;4.83;;;2.83;;
7432;SDS011;32233;49.500;7.764;2022-09-14T03:47:26;3.83;;;3.13;;
7432;SDS011;32233;49.500;7.764;2022-09-14T03:49:52;2.87;;;2.57;;
7432;SDS011;32233;49.500;7.764;2022-09-14T03:52:19;3.63;;;2.67;;
7432;SDS011;32233;49.500;7.764;2022-09-14T03:54:45;2.37;;;1.80;;
7432;SDS011;32233;49.500;7.764;2022-09-14T03:57:11;3.53;;;2.30;;
7432;SDS011;32233;49.500;7.764;2022-09-14T03:59:38;2.30;;;1.60;;
7432;SDS011;32233;49.500;7.764;2022-09-14T04:02:09;2.50;;;2.30;;
7432;SDS011;32233;49.500;7.764;2022-09-14T04:04:35;6.97;;;2.87;;
7432;SDS011;32233;49.500;7.764;2022-09-14T04:07:01;10.43;;;3.13;;
7432;SDS011;32233;49.500;7.764;2022-09-14T04:09:28;3.10;;;1.80;;
7432;SDS011;32233;49.500;7.764;2022-09-14T04:11:54;5.03;;;1.77;;
7432;SDS011;32233;49.500;7.764;2022-09-14T04:14:21;2.90;;;1.43;;
7432;SDS011;32233;49.500;7.764;2022-09-14T04:16:48;4.67;;;1.57;;
7432;SDS011;32233;49.500;7.764;2022-09-14T04:19:14;10.27;;;1.73;;
7432;SDS011;32233;49.500;7.764;2022-09-14T04:21:40;3.10;;;1.47;;
7432;SDS011;32233;49.500;7.764;2022-09-14T04:24:08;3.63;;;1.63;;
7432;SDS011;32233;49.500;7.764;2022-09-14T04:26:41;2.10;;;1.33;;
7432;SDS011;32233;49.500;7.764;2022-09-14T04:29:08;1.50;;;0.80;;
7432;SDS011;32233;49.500;7.764;2022-09-14T04:31:35;2.60;;;1.10;;
7432;SDS011;32233;49.500;7.764;2022-09-14T04:34:02;1.63;;;1.20;;
7432;SDS011;32233;49.500;7.764;2022-09-14T04:36:28;1.43;;;1.10;;
7432;SDS011;32233;49.500;7.764;2022-09-14T04:38:57;2.27;;;1.20;;
7432;SDS011;32233;49.500;7.764;2022-09-14T04:41:24;1.53;;;1.40;;
7432;SDS011;32233;49.500;7.764;2022-09-14T04:43:51;3.97;;;1.20;;
7432;SDS011;32233;49.500;7.764;2022-09-14T04:46:19;1.40;;;1.27;;
7432;SDS011;32233;49.500;7.764;2022-09-14T04:48:46;3.17;;;1.23;;
7432;SDS011;32233;49.500;7.764;2022-09-14T04:51:14;2.40;;;1.30;;
7432;SDS011;32233;49.500;7.764;2022-09-14T04:53:44;2.67;;;1.27;;
7432;SDS011;32233;49.500;7.764;2022-09-14T04:56:12;2.27;;;1.30;;
7432;SDS011;32233;49.500;7.764;2022-09-14T04:58:40;2.17;;;1.30;;
7432;SDS011;32233;49.500;7.764;2022-09-14T05:01:08;2.33;;;1.23;;
7432;SDS011;32233;49.500;7.764;2022-09-14T05:03:35;2.03;;;1.40;;
7432;SDS011;32233;49.500;7.764;2022-09-14T05:06:04;1.30;;;1.20;;
7432;SDS011;32233;49.500;7.764;2022-09-14T05:08:32;2.97;;;1.20;;
7432;SDS011;32233;49.500;7.764;2022-09-14T05:10:58;2.30;;;1.43;;
7432;SDS011;32233;49.500;7.764;2022-09-14T05:13:25;2.17;;;1.40;;
7432;SDS011;32233;49.500;7.764;2022-09-14T05:15:51;1.47;;;1.30;;
7432;SDS011;32233;49.500;7.764;2022-09-14T05:18:18;1.40;;;1.23;;
7432;SDS011;32233;49.500;7.764;2022-09-14T05:20:44;3.37;;;1.77;;
7432;SDS011;32233;49.500;7.764;2022-09-14T05:23:10;3.57;;;1.50;;
7432;SDS011;32233;49.500;7.764;2022-09-14T05:25:37;2.13;;;1.20;;
7432;SDS011;32233;49.500;7.764;2022-09-14T05:28:03;1.60;;;1.50;;
7432;SDS011;32233;49.500;7.764;2022-09-14T05:30:30;2.50;;;1.43;;
7432;SDS011;32233;49.500;7.764;2022-09-14T05:32:57;1.93;;;1.37;;
7432;SDS011;32233;49.500;7.764;2022-09-14T05:35:23;2.47;;;1.20;;
7432;SDS011;32233;49.500;7.764;2022-09-14T05:37:50;2.37;;;1.27;;
7432;SDS011;32233;49.500;7.764;2022-09-14T05:40:16;1.00;;;0.90;;
7432;SDS011;32233;49.500;7.764;2022-09-14T05:42:43;1.10;;;1.00;;
7432;SDS011;32233;49.500;7.764;2022-09-14T05:45:09;2.20;;;1.30;;
7432;SDS011;32233;49.500;7.764;2022-09-14T05:47:35;1.80;;;1.50;;
7432;SDS011;32233;49.500;7.764;2022-09-14T05:50:04;2.20;;;1.87;;
7432;SDS011;32233;49.500;7.764;2022-09-14T05:52:31;2.73;;;2.17;;
7432;SDS011;32233;49.500;7.764;2022-09-14T05:54:57;3.93;;;2.40;;
7432;SDS011;32233;49.500;7.764;2022-09-14T05:57:23;2.73;;;2.10;;
7432;SDS011;32233;49.500;7.764;2022-09-14T05:59:50;3.30;;;2.10;;
7432;SDS011;32233;49.500;7.764;2022-09-14T06:02:16;2.60;;;2.40;;
7432;SDS011;32233;49.500;7.764;2022-09-14T06:04:43;5.83;;;3.87;;
7432;SDS011;32233;49.500;7.764;2022-09-14T06:07:10;3.60;;;3.30;;
7432;SDS011;32233;49.500;7.764;2022-09-14T06:09:44;4.20;;;3.90;;
7432;SDS011;32233;49.500;7.764;2022-09-14T06:12:10;4.93;;;4.33;;
7432;SDS011;32233;49.500;7.764;2022-09-14T06:14:37;5.70;;;5.10;;
7432;SDS011;32233;49.500;7.764;2022-09-14T06:17:03;6.83;;;4.90;;
7432;SDS011;32233;49.500;7.764;2022-09-14T06:19:30;3.50;;;3.20;;
7432;SDS011;32233;49.500;7.764;2022-09-14T06:21:57;7.03;;;5.00;;
7432;SDS011;32233;49.500;7.764;2022-09-14T06:24:23;8.60;;;5.40;;
7432;SDS011;32233;49.500;7.764;2022-09-14T06:26:50;6.50;;;5.27;;
7432;SDS011;32233;49.500;7.764;2022-09-14T06:29:16;5.20;;;4.70;;
7432;SDS011;32233;49.500;7.764;2022-09-14T06:31:42;6.50;;;4.90;;
7432;SDS011;32233;49.500;7.764;2022-09-14T06:34:09;6.20;;;5.00;;
7432;SDS011;32233;49.500;7.764;2022-09-14T06:36:35;8.53;;;5.90;;
7432;SDS011;32233;49.500;7.764;2022-09-14T06:39:01;4.50;;;4.03;;
7432;SDS011;32233;49.500;7.764;2022-09-14T06:41:28;6.23;;;3.70;;
7432;SDS011;32233;49.500;7.764;2022-09-14T06:43:56;3.43;;;3.23;;
7432;SDS011;32233;49.500;7.764;2022-09-14T06:46:24;3.10;;;2.90;;
7432;SDS011;32233;49.500;7.764;2022-09-14T06:49:10;4.13;;;2.47;;
7432;SDS011;32233;49.500;7.764;2022-09-14T06:51:38;4.30;;;3.70;;
7432;SDS011;32233;49.500;7.764;2022-09-14T06:54:05;4.47;;;3.40;;
7432;SDS011;32233;49.500;7.764;2022-09-14T06:56:33;4.20;;;3.73;;
7432;SDS011;32233;49.500;7.764;2022-09-14T06:58:59;3.83;;;3.03;;
7432;SDS011;32233;49.500;7.764;2022-09-14T07:01:26;3.70;;;3.40;;
7432;SDS011;32233;49.500;7.764;2022-09-14T07:03:53;5.73;;;3.83;;
7432;SDS011;32233;49.500;7.764;2022-09-14T07:06:20;2.90;;;2.70;;
7432;SDS011;32233;49.500;7.764;2022-09-14T07:08:48;3.83;;;3.30;;
7432;SDS011;32233;49.500;7.764;2022-09-14T07:11:15;3.10;;;2.80;;
7432;SDS011;32233;49.500;7.764;2022-09-14T07:13:42;4.00;;;3.20;;
7432;SDS011;32233;49.500;7.764;2022-09-14T07:16:09;4.63;;;3.50;;
7432;SDS011;32233;49.500;7.764;2022-09-14T07:18:36;4.47;;;3.77;;
7432;SDS011;32233;49.500;7.764;2022-09-14T07:21:04;4.37;;;3.67;;
7432;SDS011;32233;49.500;7.764;2022-09-14T07:23:31;5.50;;;4.27;;
7432;SDS011;32233;49.500;7.764;2022-09-14T07:25:58;5.00;;;3.80;;
7432;SDS011;32233;49.500;7.764;2022-09-14T07:28:25;4.77;;;4.20;;
7432;SDS011;32233;49.500;7.764;2022-09-14T07:30:52;4.83;;;4.37;;
7432;SDS011;32233;49.500;7.764;2022-09-14T07:33:24;4.50;;;2.70;;
7432;SDS011;32233;49.500;7.764;2022-09-14T07:35:50;4.70;;;4.30;;
7432;SDS011;32233;49.500;7.764;2022-09-14T07:38:18;5.60;;;4.07;;
7432;SDS011;32233;49.500;7.764;2022-09-14T07:41:05;5.97;;;4.30;;
7432;SDS011;32233;49.500;7.764;2022-09-14T07:43:33;5.40;;;4.27;;
7432;SDS011;32233;49.500;7.764;2022-09-14T07:46:00;5.93;;;5.07;;
7432;SDS011;32233;49.500;7.764;2022-09-14T07:48:27;8.63;;;6.00;;
7432;SDS011;32233;49.500;7.764;2022-09-14T07:51:04;12.10;;;6.97;;
7432;SDS011;32233;49.500;7.764;2022-09-14T07:53:30;12.90;;;6.60;;
7432;SDS011;32233;49.500;7.764;2022-09-14T07:55:58;10.90;;;6.93;;
7432;SDS011;32233;49.500;7.764;2022-09-14T07:58:26;11.30;;;7.03;;
7432;SDS011;32233;49.500;7.764;2022-09-14T08:01:03;12.63;;;7.80;;
7432;SDS011;32233;49.500;7.764;2022-09-14T08:03:30;10.80;;;5.37;;
7432;SDS011;32233;49.500;7.764;2022-09-14T08:06:03;13.87;;;8.00;;
7432;SDS011;32233;49.500;7.764;2022-09-14T08:08:31;11.03;;;7.43;;
7432;SDS011;32233;49.500;7.764;2022-09-14T08:11:02;13.40;;;8.90;;
7432;SDS011;32233;49.500;7.764;2022-09-14T08:13:28;13.33;;;8.10;;
7432;SDS011;32233;49.500;7.764;2022-09-14T08:15:56;15.17;;;8.67;;
7432;SDS011;32233;49.500;7.764;2022-09-14T08:18:25;13.23;;;8.20;;
7432;SDS011;32233;49.500;7.764;2022-09-14T08:20:52;14.00;;;8.67;;
7432;SDS011;32233;49.500;7.764;2022-09-14T08:23:18;15.80;;;9.03;;
7432;SDS011;32233;49.500;7.764;2022-09-14T08:25:44;16.33;;;9.23;;
7432;SDS011;32233;49.500;7.764;2022-09-14T08:28:11;18.30;;;10.00;;
7432;SDS011;32233;49.500;7.764;2022-09-14T08:30:37;18.33;;;10.73;;
7432;SDS011;32233;49.500;7.764;2022-09-14T08:33:04;22.50;;;10.00;;
7432;SDS011;32233;49.500;7.764;2022-09-14T08:35:33;18.60;;;10.17;;
7432;SDS011;32233;49.500;7.764;2022-09-14T08:38:19;18.60;;;10.13;;
7432;SDS011;32233;49.500;7.764;2022-09-14T08:40:46;18.60;;;11.20;;
7432;SDS011;32233;49.500;7.764;2022-09-14T08:43:12;24.23;;;12.27;;
7432;SDS011;32233;49.500;7.764;2022-09-14T08:45:40;24.23;;;12.00;;
7432;SDS011;32233;49.500;7.764;2022-09-14T08:48:16;22.23;;;11.93;;
7432;SDS011;32233;49.500;7.764;2022-09-14T08:50:45;22.93;;;13.10;;
7432;SDS011;32233;49.500;7.764;2022-09-14T08:53:11;25.60;;;14.57;;
7432;SDS011;32233;49.500;7.764;2022-09-14T08:55:40;25.17;;;13.67;;
7432;SDS011;32233;49.500;7.764;2022-09-14T09:00:45;28.47;;;13.90;;
7432;SDS011;32233;49.500;7.764;2022-09-14T09:03:23;26.97;;;14.10;;
7432;SDS011;32233;49.500;7.764;2022-09-14T09:08:36;29.13;;;14.53;;
7432;SDS011;32233;49.500;7.764;2022-09-14T09:11:04;27.70;;;14.73;;
7432;SDS011;32233;49.500;7.764;2022-09-14T09:13:33;26.90;;;14.37;;
7432;SDS011;32233;49.500;7.764;2022-09-14T09:16:01;25.87;;;14.60;;
7432;SDS011;32233;49.500;7.764;2022-09-14T09:18:41;22.50;;;11.03;;
7432;SDS011;32233;49.500;7.764;2022-09-14T09:21:16;29.97;;;15.17;;
7432;SDS011;32233;49.500;7.764;2022-09-14T09:23:43;30.47;;;15.80;;
7432;SDS011;32233;49.500;7.764;2022-09-14T09:26:21;25.33;;;14.40;;
7432;SDS011;32233;49.500;7.764;2022-09-14T09:28:51;26.87;;;14.20;;
7432;SDS011;32233;49.500;7.764;2022-09-14T09:31:18;25.40;;;14.43;;
7432;SDS011;32233;49.500;7.764;2022-09-14T09:34:13;26.90;;;15.10;;
7432;SDS011;32233;49.500;7.764;2022-09-14T09:36:46;24.30;;;14.57;;
7432;SDS011;32233;49.500;7.764;2022-09-14T09:39:14;23.10;;;13.43;;
7432;SDS011;32233;49.500;7.764;2022-09-14T09:41:45;22.47;;;13.07;;
7432;SDS011;32233;49.500;7.764;2022-09-14T09:44:12;23.07;;;13.53;;
7432;SDS011;32233;49.500;7.764;2022-09-14T09:49:25;21.33;;;12.93;;
7432;SDS011;32233;49.500;7.764;2022-09-14T09:51:53;18.47;;;12.20;;
7432;SDS011;32233;49.500;7.764;2022-09-14T09:54:24;18.90;;;11.73;;
7432;SDS011;32233;49.500;7.764;2022-09-14T10:01:54;19.07;;;12.40;;
7432;SDS011;32233;49.500;7.764;2022-09-14T10:04:21;18.60;;;12.23;;
7432;SDS011;32233;49.500;7.764;2022-09-14T10:06:50;14.90;;;11.03;;
7432;SDS011;32233;49.500;7.764;2022-09-14T10:09:19;21.07;;;12.27;;
7432;SDS011;32233;49.500;7.764;2022-09-14T10:11:46;16.63;;;11.57;;
7432;SDS011;32233;49.500;7.764;2022-09-14T10:14:18;16.77;;;12.30;;
7432;SDS011;32233;49.500;7.764;2022-09-14T10:16:45;17.00;;;12.10;;
7432;SDS011;32233;49.500;7.764;2022-09-14T10:19:20;16.67;;;11.50;;
7432;SDS011;32233;49.500;7.764;2022-09-14T10:22:01;14.57;;;11.00;;
7432;SDS011;32233;49.500;7.764;2022-09-14T10:24:28;14.00;;;10.37;;
7432;SDS011;32233;49.500;7.764;2022-09-14T10:26:54;14.83;;;10.83;;
7432;SDS011;32233;49.500;7.764;2022-09-14T10:31:58;13.70;;;10.30;;
7432;SDS011;32233;49.500;7.764;2022-09-14T10:34:26;12.13;;;10.00;;
7432;SDS011;32233;49.500;7.764;2022-09-14T10:36:57;11.90;;;9.40;;
7432;SDS011;32233;49.500;7.764;2022-09-14T10:42:08;13.17;;;8.87;;
7432;SDS011;32233;49.500;7.764;2022-09-14T10:49:45;15.20;;;8.40;;
7432;SDS011;32233;49.500;7.764;2022-09-14T10:54:51;11.80;;;8.30;;
7432;SDS011;32233;49.500;7.764;2022-09-14T10:59:54;8.80;;;7.90;;
7432;SDS011;32233;49.500;7.764;2022-09-14T11:05:11;10.43;;;7.37;;
7432;SDS011;32233;49.500;7.764;2022-09-14T11:10:34;9.30;;;7.00;;
7432;SDS011;32233;49.500;7.764;2022-09-14T11:13:22;9.80;;;6.20;;
7432;SDS011;32233;49.500;7.764;2022-09-14T11:18:24;8.07;;;5.13;;
7432;SDS011;32233;49.500;7.764;2022-09-14T11:21:15;6.07;;;4.30;;
7432;SDS011;32233;49.500;7.764;2022-09-14T11:23:44;8.07;;;5.53;;
7432;SDS011;32233;49.500;7.764;2022-09-14T11:26:22;4.77;;;4.13;;
7432;SDS011;32233;49.500;7.764;2022-09-14T11:28:54;6.33;;;5.10;;
7432;SDS011;32233;49.500;7.764;2022-09-14T11:31:23;8.33;;;5.40;;
7432;SDS011;32233;49.500;7.764;2022-09-14T11:36:54;12.07;;;7.83;;
7432;SDS011;32233;49.500;7.764;2022-09-14T11:39:22;10.87;;;8.17;;
7432;SDS011;32233;49.500;7.764;2022-09-14T11:41:52;10.43;;;8.07;;
7432;SDS011;32233;49.500;7.764;2022-09-14T11:44:30;9.47;;;7.23;;
7432;SDS011;32233;49.500;7.764;2022-09-14T11:47:02;11.30;;;7.57;;
7432;SDS011;32233;49.500;7.764;2022-09-14T11:52:18;8.80;;;6.53;;
7432;SDS011;32233;49.500;7.764;2022-09-14T11:54:46;8.00;;;7.10;;
7432;SDS011;32233;49.500;7.764;2022-09-14T11:57:15;7.73;;;6.10;;
7432;SDS011;32233;49.500;7.764;2022-09-14T12:12:43;6.10;;;5.53;;
7432;SDS011;32233;49.500;7.764;2022-09-14T12:15:15;6.67;;;5.37;;
7432;SDS011;32233;49.500;7.764;2022-09-14T12:17:42;4.77;;;4.37;;
7432;SDS011;32233;49.500;7.764;2022-09-14T12:22:45;6.67;;;4.63;;
7432;SDS011;32233;49.500;7.764;2022-09-14T12:25:16;6.47;;;4.80;;
7432;SDS011;32233;49.500;7.764;2022-09-14T12:27:44;5.70;;;5.10;;
7432;SDS011;32233;49.500;7.764;2022-09-14T12:46:08;8.83;;;5.37;;
7432;SDS011;32233;49.500;7.764;2022-09-14T12:53:42;7.37;;;5.30;;
7432;SDS011;32233;49.500;7.764;2022-09-14T12:56:16;8.93;;;5.40;;
7432;SDS011;32233;49.500;7.764;2022-09-14T12:58:57;6.57;;;5.23;;
7432;SDS011;32233;49.500;7.764;2022-09-14T13:01:34;12.00;;;5.00;;
7432;SDS011;32233;49.500;7.764;2022-09-14T13:04:02;7.03;;;4.60;;
7432;SDS011;32233;49.500;7.764;2022-09-14T13:06:33;4.90;;;4.37;;
7432;SDS011;32233;49.500;7.764;2022-09-14T13:09:00;5.60;;;4.33;;
7432;SDS011;32233;49.500;7.764;2022-09-14T13:11:31;5.20;;;4.10;;
7432;SDS011;32233;49.500;7.764;2022-09-14T13:13:59;5.53;;;3.93;;
7432;SDS011;32233;49.500;7.764;2022-09-14T13:16:33;5.23;;;3.63;;
7432;SDS011;32233;49.500;7.764;2022-09-14T13:19:01;4.90;;;3.70;;
7432;SDS011;32233;49.500;7.764;2022-09-14T13:21:28;5.77;;;4.20;;
7432;SDS011;32233;49.500;7.764;2022-09-14T13:23:54;5.30;;;3.97;;
7432;SDS011;32233;49.500;7.764;2022-09-14T13:26:30;4.37;;;3.37;;
7432;SDS011;32233;49.500;7.764;2022-09-14T13:28:57;4.07;;;3.77;;
7432;SDS011;32233;49.500;7.764;2022-09-14T13:33:52;7.77;;;3.23;;
7432;SDS011;32233;49.500;7.764;2022-09-14T13:36:21;7.77;;;3.10;;
7432;SDS011;32233;49.500;7.764;2022-09-14T13:38:48;7.00;;;2.63;;
7432;SDS011;32233;49.500;7.764;2022-09-14T13:41:16;3.50;;;2.20;;
7432;SDS011;32233;49.500;7.764;2022-09-14T13:43:43;3.93;;;1.73;;
7432;SDS011;32233;49.500;7.764;2022-09-14T13:46:10;3.37;;;1.80;;
7432;SDS011;32233;49.500;7.764;2022-09-14T13:48:37;3.00;;;1.50;;
7432;SDS011;32233;49.500;7.764;2022-09-14T13:51:05;1.83;;;1.47;;
7432;SDS011;32233;49.500;7.764;2022-09-14T13:56:14;3.17;;;1.30;;
7432;SDS011;32233;49.500;7.764;2022-09-14T13:58:41;1.40;;;1.20;;
7432;SDS011;32233;49.500;7.764;2022-09-14T14:01:07;3.30;;;1.20;;
7432;SDS011;32233;49.500;7.764;2022-09-14T14:03:41;3.77;;;1.30;;
7432;SDS011;32233;49.500;7.764;2022-09-14T14:08:41;4.20;;;1.30;;
7432;SDS011;32233;49.500;7.764;2022-09-14T14:11:07;2.83;;;0.80;;
7432;SDS011;32233;49.500;7.764;2022-09-14T14:13:34;2.73;;;1.00;;
7432;SDS011;32233;49.500;7.764;2022-09-14T14:16:12;2.80;;;1.10;;
7432;SDS011;32233;49.500;7.764;2022-09-14T14:18:40;1.37;;;0.70;;
7432;SDS011;32233;49.500;7.764;2022-09-14T14:21:22;1.33;;;0.80;;
7432;SDS011;32233;49.500;7.764;2022-09-14T14:26:39;0.80;;;0.80;;
7432;SDS011;32233;49.500;7.764;2022-09-14T14:29:12;2.63;;;1.00;;
7432;SDS011;32233;49.500;7.764;2022-09-14T14:34:39;1.73;;;1.10;;
7432;SDS011;32233;49.500;7.764;2022-09-14T14:37:05;2.40;;;1.30;;
7432;SDS011;32233;49.500;7.764;2022-09-14T14:39:31;1.30;;;1.20;;
7432;SDS011;32233;49.500;7.764;2022-09-14T14:41:58;1.63;;;1.00;;
7432;SDS011;32233;49.500;7.764;2022-09-14T14:44:26;2.47;;;1.30;;
7432;SDS011;32233;49.500;7.764;2022-09-14T14:46:54;2.20;;;1.20;;
7432;SDS011;32233;49.500;7.764;2022-09-14T14:49:21;1.10;;;1.00;;
7432;SDS011;32233;49.500;7.764;2022-09-14T14:51:48;1.33;;;1.00;;
7432;SDS011;32233;49.500;7.764;2022-09-14T14:54:15;2.40;;;1.27;;
7432;SDS011;32233;49.500;7.764;2022-09-14T14:56:47;2.33;;;1.17;;
7432;SDS011;32233;49.500;7.764;2022-09-14T14:59:24;4.10;;;1.33;;
7432;SDS011;32233;49.500;7.764;2022-09-14T15:01:51;1.67;;;1.10;;
7432;SDS011;32233;49.500;7.764;2022-09-14T15:04:18;3.07;;;1.20;;
7432;SDS011;32233;49.500;7.764;2022-09-14T15:06:45;2.83;;;1.47;;
7432;SDS011;32233;49.500;7.764;2022-09-14T15:09:16;1.70;;;1.30;;
7432;SDS011;32233;49.500;7.764;2022-09-14T15:11:43;2.57;;;1.33;;
7432;SDS011;32233;49.500;7.764;2022-09-14T15:14:11;3.00;;;1.13;;
7432;SDS011;32233;49.500;7.764;2022-09-14T15:16:38;2.93;;;1.20;;
7432;SDS011;32233;49.500;7.764;2022-09-14T15:19:04;1.63;;;1.20;;
7432;SDS011;32233;49.500;7.764;2022-09-14T15:21:31;2.30;;;1.20;;
7432;SDS011;32233;49.500;7.764;2022-09-14T15:23:57;2.03;;;1.30;;
7432;SDS011;32233;49.500;7.764;2022-09-14T15:26:24;4.37;;;1.23;;
7432;SDS011;32233;49.500;7.764;2022-09-14T15:28:51;3.27;;;1.10;;
7432;SDS011;32233;49.500;7.764;2022-09-14T15:31:17;1.53;;;1.40;;
7432;SDS011;32233;49.500;7.764;2022-09-14T15:33:44;1.50;;;1.40;;
7432;SDS011;32233;49.500;7.764;2022-09-14T15:36:10;2.43;;;1.40;;
7432;SDS011;32233;49.500;7.764;2022-09-14T15:38:37;2.27;;;1.57;;
7432;SDS011;32233;49.500;7.764;2022-09-14T15:41:03;4.20;;;1.60;;
7432;SDS011;32233;49.500;7.764;2022-09-14T15:43:30;3.00;;;1.60;;
7432;SDS011;32233;49.500;7.764;2022-09-14T15:46:02;1.70;;;1.47;;
7432;SDS011;32233;49.500;7.764;2022-09-14T15:48:29;2.50;;;1.60;;
7432;SDS011;32233;49.500;7.764;2022-09-14T15:50:55;3.27;;;1.50;;
7432;SDS011;32233;49.500;7.764;2022-09-14T15:53:25;3.00;;;1.60;;
7432;SDS011;32233;49.500;7.764;2022-09-14T15:55:52;3.17;;;1.60;;
7432;SDS011;32233;49.500;7.764;2022-09-14T15:58:18;2.10;;;1.90;;
7432;SDS011;32233;49.500;7.764;2022-09-14T16:00:44;4.60;;;2.17;;
7432;SDS011;32233;49.500;7.764;2022-09-14T16:03:11;3.30;;;1.80;;
7432;SDS011;32233;49.500;7.764;2022-09-14T16:05:37;4.43;;;2.17;;
7432;SDS011;32233;49.500;7.764;2022-09-14T16:08:04;3.30;;;1.80;;
7432;SDS011;32233;49.500;7.764;2022-09-14T16:10:30;5.43;;;2.00;;
7432;SDS011;32233;49.500;7.764;2022-09-14T16:12:56;4.13;;;2.07;;
7432;SDS011;32233;49.500;7.764;2022-09-14T16:15:23;3.10;;;2.10;;
7432;SDS011;32233;49.500;7.764;2022-09-14T16:17:50;2.67;;;2.07;;
7432;SDS011;32233;49.500;7.764;2022-09-14T16:20:17;4.10;;;2.50;;
7432;SDS011;32233;49.500;7.764;2022-09-14T16:22:46;3.80;;;2.20;;
7432;SDS011;32233;49.500;7.764;2022-09-14T16:25:13;4.77;;;2.30;;
7432;SDS011;32233;49.500;7.764;2022-09-14T16:27:39;2.87;;;2.20;;
7432;SDS011;32233;49.500;7.764;2022-09-14T16:30:06;3.63;;;2.30;;
7432;SDS011;32233;49.500;7.764;2022-09-14T16:32:33;5.20;;;2.53;;
7432;SDS011;32233;49.500;7.764;2022-09-14T16:34:59;3.17;;;2.50;;
7432;SDS011;32233;49.500;7.764;2022-09-14T16:37:31;4.60;;;2.30;;
7432;SDS011;32233;49.500;7.764;2022-09-14T16:39:57;4.27;;;2.40;;
7432;SDS011;32233;49.500;7.764;2022-09-14T16:42:23;4.10;;;2.13;;
7432;SDS011;32233;49.500;7.764;2022-09-14T16:44:50;6.47;;;2.60;;
7432;SDS011;32233;49.500;7.764;2022-09-14T16:47:16;3.57;;;2.10;;
7432;SDS011;32233;49.500;7.764;2022-09-14T16:49:43;5.73;;;2.37;;
7432;SDS011;32233;49.500;7.764;2022-09-14T16:52:09;3.97;;;2.47;;
7432;SDS011;32233;49.500;7.764;2022-09-14T16:54:35;5.77;;;2.87;;
7432;SDS011;32233;49.500;7.764;2022-09-14T16:57:02;3.10;;;2.53;;
7432;SDS011;32233;49.500;7.764;2022-09-14T16:59:28;5.70;;;2.90;;
7432;SDS011;32233;49.500;7.764;2022-09-14T17:01:55;3.40;;;2.80;;
7432;SDS011;32233;49.500;7.764;2022-09-14T17:04:21;3.83;;;2.50;;
7432;SDS011;32233;49.500;7.764;2022-09-14T17:06:48;4.73;;;3.07;;